createdAt,value
2022-10-30T00:01:15.306Z,12.60
2022-10-30T00:03:19.934Z,12.60
2022-10-30T00:05:24.843Z,12.60
2022-10-30T00:07:29.044Z,12.60
2022-10-30T00:09:33.230Z,12.60
2022-10-30T00:11:37.400Z,12.60
2022-10-30T00:13:43.851Z,12.60
2022-10-30T00:15:53.367Z,12.50
2022-10-30T00:17:59.707Z,12.50
2022-10-30T00:20:04.972Z,12.50
2022-10-30T00:22:09.526Z,12.50
2022-10-30T00:24:13.894Z,12.50
2022-10-30T00:26:19.332Z,12.40
2022-10-30T00:28:24.144Z,12.40
2022-10-30T00:30:28.569Z,12.50
2022-10-30T00:32:33.088Z,12.40
2022-10-30T00:34:39.190Z,12.40
2022-10-30T00:36:45.263Z,12.40
2022-10-30T00:38:49.829Z,12.40
2022-10-30T00:40:57.229Z,12.30
2022-10-30T00:43:01.859Z,12.30
2022-10-30T00:45:06.986Z,12.30
2022-10-30T00:47:17.115Z,12.30
2022-10-30T00:49:21.378Z,12.30
2022-10-30T00:51:29.332Z,12.30
2022-10-30T00:53:33.849Z,12.30
2022-10-30T00:55:41.535Z,12.30
2022-10-30T00:57:47.138Z,12.30
2022-10-30T00:59:52.638Z,12.40
2022-10-30T01:01:57.924Z,12.40
2022-10-30T01:04:05.105Z,12.40
2022-10-30T01:06:13.062Z,12.30
2022-10-30T01:08:18.944Z,12.20
2022-10-30T01:10:24.046Z,12.10
2022-10-30T01:12:28.387Z,12.00
2022-10-30T01:14:33.303Z,11.80
2022-10-30T01:16:50.321Z,11.80
2022-10-30T01:19:01.721Z,11.80
2022-10-30T01:21:21.049Z,11.80
2022-10-30T01:23:39.516Z,11.70
2022-10-30T01:25:57.913Z,11.80
2022-10-30T01:28:10.178Z,11.80
2022-10-30T01:30:28.027Z,11.90
2022-10-30T01:32:46.249Z,11.90
2022-10-30T01:34:57.537Z,11.90
2022-10-30T01:37:07.229Z,11.90
2022-10-30T01:39:17.401Z,11.90
2022-10-30T01:41:21.827Z,11.90
2022-10-30T01:43:26.334Z,11.90
2022-10-30T01:45:51.563Z,11.60
2022-10-30T01:48:15.635Z,11.50
2022-10-30T01:50:35.598Z,11.50
2022-10-30T01:52:49.211Z,11.60
2022-10-30T01:55:05.942Z,11.60
2022-10-30T01:57:17.843Z,11.60
2022-10-30T01:59:31.096Z,11.60
2022-10-30T02:01:36.981Z,11.60
2022-10-30T02:03:42.018Z,11.50
2022-10-30T02:05:50.371Z,11.50
2022-10-30T02:07:56.491Z,11.50
2022-10-30T02:10:05.783Z,11.50
2022-10-30T02:12:10.979Z,11.50
2022-10-30T02:14:40.288Z,11.60
2022-10-30T02:16:49.207Z,11.70
2022-10-30T02:18:56.704Z,11.70
2022-10-30T02:21:02.489Z,11.70
2022-10-30T02:23:09.309Z,11.70
2022-10-30T02:25:14.033Z,11.70
2022-10-30T02:27:19.031Z,11.70
2022-10-30T02:29:23.527Z,11.60
2022-10-30T02:31:27.946Z,11.60
2022-10-30T02:33:32.259Z,11.60
2022-10-30T02:35:36.887Z,11.60
2022-10-30T02:37:42.762Z,11.50
2022-10-30T02:39:47.119Z,11.50
2022-10-30T02:41:52.243Z,11.40
2022-10-30T02:43:56.706Z,11.30
2022-10-30T02:46:01.113Z,11.30
2022-10-30T02:48:05.713Z,11.30
2022-10-30T02:50:11.267Z,11.40
2022-10-30T02:52:15.673Z,11.40
2022-10-30T02:54:21.468Z,11.40
2022-10-30T02:56:26.758Z,11.30
2022-10-30T02:58:31.395Z,11.30
2022-10-30T03:00:35.842Z,11.30
2022-10-30T03:02:40.544Z,11.30
2022-10-30T03:04:44.780Z,11.20
2022-10-30T03:06:49.000Z,11.30
2022-10-30T03:08:53.225Z,11.30
2022-10-30T03:11:03.131Z,11.30
2022-10-30T03:13:07.154Z,11.30
2022-10-30T03:15:12.052Z,11.20
2022-10-30T03:17:16.315Z,11.20
2022-10-30T03:19:20.902Z,11.20
2022-10-30T03:21:29.924Z,11.20
2022-10-30T03:23:34.600Z,11.20
2022-10-30T03:25:39.853Z,11.20
2022-10-30T03:27:45.398Z,11.30
2022-10-30T03:29:49.988Z,11.20
2022-10-30T03:31:54.198Z,11.20
2022-10-30T03:33:59.723Z,11.20
2022-10-30T03:36:04.544Z,11.30
2022-10-30T03:38:08.750Z,11.20
2022-10-30T03:40:13.823Z,11.30
2022-10-30T03:42:18.090Z,11.30
2022-10-30T03:44:24.326Z,11.30
2022-10-30T03:46:28.538Z,11.30
2022-10-30T03:48:41.946Z,11.30
2022-10-30T03:50:48.471Z,11.20
2022-10-30T03:52:55.205Z,11.10
2022-10-30T03:54:59.648Z,11.00
2022-10-30T03:57:03.844Z,11.10
2022-10-30T03:59:18.742Z,11.00
2022-10-30T04:01:40.856Z,11.00
2022-10-30T04:03:45.277Z,11.00
2022-10-30T04:05:51.173Z,11.00
2022-10-30T04:07:58.953Z,11.00
2022-10-30T04:10:03.867Z,11.00
2022-10-30T04:12:08.597Z,11.00
2022-10-30T04:14:12.828Z,11.00
2022-10-30T04:16:17.145Z,11.00
2022-10-30T04:18:23.594Z,11.00
2022-10-30T04:20:28.426Z,11.00
2022-10-30T04:22:32.633Z,11.00
2022-10-30T04:24:39.700Z,11.00
2022-10-30T04:26:44.341Z,11.00
2022-10-30T04:28:50.503Z,11.00
2022-10-30T04:30:54.842Z,11.00
2022-10-30T04:32:59.656Z,11.10
2022-10-30T04:35:06.180Z,11.10
2022-10-30T04:37:10.497Z,11.10
2022-10-30T04:39:15.297Z,11.10
2022-10-30T04:41:20.773Z,11.10
2022-10-30T04:43:34.221Z,11.20
2022-10-30T04:45:39.513Z,11.10
2022-10-30T04:47:44.545Z,11.00
2022-10-30T04:49:48.918Z,11.00
2022-10-30T04:51:55.896Z,11.00
2022-10-30T04:54:00.495Z,11.00
2022-10-30T04:56:08.495Z,11.00
2022-10-30T04:58:14.529Z,11.10
2022-10-30T05:00:21.341Z,11.20
2022-10-30T05:02:26.722Z,11.40
2022-10-30T05:04:31.615Z,11.50
2022-10-30T05:06:36.012Z,11.70
2022-10-30T05:08:41.751Z,12.00
2022-10-30T05:10:58.953Z,12.40
2022-10-30T05:13:03.370Z,12.70
2022-10-30T05:15:09.541Z,12.90
2022-10-30T05:17:15.209Z,13.30
2022-10-30T05:19:20.548Z,13.60
2022-10-30T05:21:30.537Z,13.90
2022-10-30T05:23:35.917Z,14.30
2022-10-30T05:25:42.105Z,14.60
2022-10-30T05:27:48.746Z,14.80
2022-10-30T05:29:55.725Z,15.10
2022-10-30T05:32:00.254Z,15.10
2022-10-30T05:34:16.787Z,15.10
2022-10-30T05:36:23.095Z,15.20
2022-10-30T05:38:27.905Z,15.50
2022-10-30T05:40:32.919Z,15.60
2022-10-30T05:42:38.788Z,15.70
2022-10-30T05:45:05.644Z,16.20
2022-10-30T05:47:13.472Z,16.50
2022-10-30T05:49:22.279Z,17.00
2022-10-30T05:51:26.633Z,17.20
2022-10-30T05:53:35.596Z,17.00
2022-10-30T05:55:40.735Z,16.80
2022-10-30T05:57:51.438Z,16.80
2022-10-30T05:59:55.828Z,16.60
2022-10-30T06:02:00.307Z,16.60
2022-10-30T06:04:05.389Z,16.30
2022-10-30T06:06:09.688Z,15.80
2022-10-30T06:08:16.295Z,15.80
2022-10-30T06:10:24.762Z,16.10
2022-10-30T06:13:00.801Z,16.10
2022-10-30T06:15:15.976Z,16.70
2022-10-30T06:17:20.184Z,17.20
2022-10-30T06:19:32.201Z,17.40
2022-10-30T06:22:00.195Z,17.70
2022-10-30T06:24:12.511Z,17.80
2022-10-30T06:26:32.280Z,18.00
2022-10-30T06:28:44.691Z,18.30
2022-10-30T06:30:51.346Z,18.30
2022-10-30T06:32:59.003Z,18.40
2022-10-30T06:35:04.720Z,18.50
2022-10-30T06:37:09.098Z,18.50
2022-10-30T06:39:14.478Z,18.40
2022-10-30T06:41:40.163Z,18.80
2022-10-30T06:44:04.451Z,18.30
2022-10-30T06:46:10.131Z,18.50
2022-10-30T06:48:18.941Z,18.50
2022-10-30T06:50:30.316Z,18.70
2022-10-30T06:52:35.209Z,18.80
2022-10-30T06:54:41.385Z,18.60
2022-10-30T06:57:04.221Z,18.40
2022-10-30T06:59:28.474Z,18.50
2022-10-30T07:01:55.762Z,18.80
2022-10-30T07:04:04.695Z,18.90
2022-10-30T07:06:09.347Z,18.70
2022-10-30T07:08:15.311Z,18.80
2022-10-30T07:10:20.415Z,19.20
2022-10-30T07:12:43.067Z,19.70
2022-10-30T07:14:58.382Z,20.00
2022-10-30T07:17:09.948Z,20.10
2022-10-30T07:19:16.140Z,20.40
2022-10-30T07:21:20.594Z,20.60
2022-10-30T07:23:26.153Z,20.70
2022-10-30T07:25:37.642Z,20.70
2022-10-30T07:28:02.765Z,20.80
2022-10-30T07:30:37.143Z,20.60
2022-10-30T07:33:02.111Z,20.60
2022-10-30T07:35:38.686Z,20.40
2022-10-30T07:38:06.867Z,20.20
2022-10-30T07:40:23.850Z,20.00
2022-10-30T07:42:35.086Z,19.70
2022-10-30T07:44:58.151Z,19.50
2022-10-30T07:47:24.322Z,19.50
2022-10-30T07:49:54.669Z,19.30
2022-10-30T07:51:59.517Z,19.40
2022-10-30T07:54:04.154Z,19.50
2022-10-30T07:56:10.340Z,19.50
2022-10-30T07:58:29.775Z,19.50
2022-10-30T08:00:54.538Z,19.50
2022-10-30T08:03:08.914Z,19.50
2022-10-30T08:05:32.476Z,19.50
2022-10-30T08:07:57.376Z,19.50
2022-10-30T08:10:02.141Z,19.60
2022-10-30T08:12:08.027Z,19.90
2022-10-30T08:14:12.565Z,20.10
2022-10-30T08:16:18.406Z,20.30
2022-10-30T08:18:25.842Z,20.70
2022-10-30T08:20:30.457Z,20.80
2022-10-30T08:22:36.771Z,20.70
2022-10-30T08:24:42.488Z,20.50
2022-10-30T08:26:46.804Z,20.40
2022-10-30T08:28:51.597Z,20.20
2022-10-30T08:30:56.867Z,20.10
2022-10-30T08:33:18.760Z,19.80
2022-10-30T08:36:00.974Z,19.70
2022-10-30T08:38:05.742Z,20.00
2022-10-30T08:40:12.542Z,20.00
2022-10-30T08:42:34.238Z,20.00
2022-10-30T08:44:42.961Z,20.00
2022-10-30T08:46:53.360Z,19.90
2022-10-30T08:48:58.249Z,19.90
2022-10-30T08:51:04.538Z,20.10
2022-10-30T08:53:15.818Z,20.30
2022-10-30T08:55:22.848Z,20.20
2022-10-30T08:57:28.125Z,20.20
2022-10-30T08:59:34.709Z,20.00
2022-10-30T09:01:39.448Z,20.40
2022-10-30T09:04:12.631Z,20.40
2022-10-30T09:06:37.171Z,20.40
2022-10-30T09:09:07.551Z,20.40
2022-10-30T09:11:23.897Z,20.60
2022-10-30T09:13:31.224Z,20.80
2022-10-30T09:15:36.994Z,20.90
2022-10-30T09:17:42.464Z,20.90
2022-10-30T09:22:05.277Z,20.90
2022-10-30T09:24:11.097Z,20.90
2022-10-30T09:26:18.332Z,21.00
2022-10-30T09:28:51.617Z,21.40
2022-10-30T09:31:14.235Z,21.60
2022-10-30T09:33:18.358Z,22.00
2022-10-30T09:35:48.611Z,22.30
2022-10-30T09:37:55.208Z,22.40
2022-10-30T09:39:59.454Z,22.40
2022-10-30T09:42:29.491Z,22.20
2022-10-30T09:44:52.412Z,21.90
2022-10-30T09:47:23.506Z,21.80
2022-10-30T09:49:52.033Z,21.80
2022-10-30T09:52:11.438Z,21.70
2022-10-30T09:54:36.350Z,21.90
2022-10-30T09:56:45.805Z,22.00
2022-10-30T09:59:01.013Z,22.10
2022-10-30T10:01:13.411Z,22.20
2022-10-30T10:03:35.453Z,22.50
2022-10-30T10:06:17.438Z,22.70
2022-10-30T10:08:39.132Z,22.80
2022-10-30T10:11:15.038Z,22.80
2022-10-30T10:13:31.039Z,22.50
2022-10-30T10:15:41.120Z,22.60
2022-10-30T10:17:47.228Z,22.90
2022-10-30T10:19:56.861Z,23.00
2022-10-30T10:22:03.661Z,23.00
2022-10-30T10:24:19.739Z,23.00
2022-10-30T10:26:48.449Z,23.10
2022-10-30T10:29:10.129Z,23.20
2022-10-30T10:31:29.459Z,23.00
2022-10-30T10:33:53.669Z,23.00
2022-10-30T10:36:10.173Z,22.90
2022-10-30T10:38:25.323Z,22.90
2022-10-30T10:40:41.642Z,22.90
2022-10-30T10:42:55.407Z,22.90
2022-10-30T10:45:16.943Z,23.10
2022-10-30T10:47:36.031Z,23.20
2022-10-30T10:49:55.275Z,23.20
2022-10-30T10:52:03.657Z,23.40
2022-10-30T10:54:13.457Z,23.40
2022-10-30T10:56:17.393Z,23.30
2022-10-30T10:58:30.828Z,23.30
2022-10-30T11:00:35.712Z,23.30
2022-10-30T11:02:43.379Z,23.40
2022-10-30T11:04:51.159Z,23.20
2022-10-30T11:06:57.456Z,22.90
2022-10-30T11:09:15.392Z,22.80
2022-10-30T11:11:19.581Z,22.60
2022-10-30T11:13:26.138Z,22.40
2022-10-30T11:15:41.450Z,22.30
2022-10-30T11:17:53.704Z,22.40
2022-10-30T11:20:02.644Z,22.60
2022-10-30T11:22:19.467Z,22.80
2022-10-30T11:24:32.408Z,23.00
2022-10-30T11:26:37.319Z,23.20
2022-10-30T11:28:50.954Z,23.30
2022-10-30T11:31:19.038Z,23.40
2022-10-30T11:33:24.467Z,23.50
2022-10-30T11:35:28.715Z,23.70
2022-10-30T11:37:35.047Z,23.70
2022-10-30T11:39:39.289Z,23.80
2022-10-30T11:41:43.533Z,23.70
2022-10-30T11:43:50.248Z,23.80
2022-10-30T11:45:55.320Z,23.90
2022-10-30T11:48:02.949Z,23.90
2022-10-30T11:50:17.951Z,23.90
2022-10-30T11:52:25.769Z,23.70
2022-10-30T11:54:30.278Z,23.30
2022-10-30T11:56:36.580Z,23.20
2022-10-30T11:58:46.072Z,23.10
2022-10-30T12:01:04.151Z,23.00
2022-10-30T12:03:28.981Z,23.00
2022-10-30T12:05:37.842Z,23.00
2022-10-30T12:07:41.929Z,22.90
2022-10-30T12:09:48.160Z,22.90
2022-10-30T12:11:52.341Z,22.90
2022-10-30T12:13:56.981Z,22.90
2022-10-30T12:16:16.920Z,22.80
2022-10-30T12:18:25.435Z,22.80
2022-10-30T12:20:30.471Z,22.70
2022-10-30T12:22:39.603Z,22.40
2022-10-30T12:24:46.040Z,22.30
2022-10-30T12:26:55.383Z,22.40
2022-10-30T12:29:02.350Z,22.50
2022-10-30T12:31:11.673Z,22.40
2022-10-30T12:33:21.929Z,22.50
2022-10-30T12:35:39.782Z,22.70
2022-10-30T12:37:45.513Z,22.90
2022-10-30T12:39:58.653Z,23.10
2022-10-30T12:42:08.430Z,23.20
2022-10-30T12:44:19.455Z,23.20
2022-10-30T12:46:34.489Z,23.40
2022-10-30T12:48:49.495Z,23.50
2022-10-30T12:51:05.913Z,23.50
2022-10-30T12:53:27.147Z,23.70
2022-10-30T12:55:36.939Z,23.70
2022-10-30T12:57:47.769Z,23.90
2022-10-30T13:00:00.797Z,24.00
2022-10-30T13:02:16.934Z,24.10
2022-10-30T13:04:26.503Z,24.20
2022-10-30T13:06:34.082Z,24.20
2022-10-30T13:08:44.937Z,24.10
2022-10-30T13:10:55.736Z,24.20
2022-10-30T13:13:04.695Z,24.20
2022-10-30T13:15:18.940Z,24.30
2022-10-30T13:17:23.262Z,24.20
2022-10-30T13:19:28.805Z,24.10
2022-10-30T13:21:37.261Z,23.90
2022-10-30T13:23:49.668Z,23.80
2022-10-30T13:26:06.168Z,23.70
2022-10-30T13:28:18.391Z,23.80
2022-10-30T13:30:24.435Z,23.90
2022-10-30T13:32:35.862Z,23.80
2022-10-30T13:34:50.819Z,23.90
2022-10-30T13:37:02.612Z,24.00
2022-10-30T13:39:19.368Z,24.00
2022-10-30T13:41:32.961Z,24.10
2022-10-30T13:43:44.957Z,24.20
2022-10-30T13:46:24.316Z,24.20
2022-10-30T13:48:40.837Z,24.20
2022-10-30T13:51:06.602Z,24.30
2022-10-30T13:53:15.973Z,24.20
2022-10-30T13:55:24.207Z,24.10
2022-10-30T13:57:35.077Z,23.90
2022-10-30T13:59:54.574Z,24.00
2022-10-30T14:02:05.459Z,24.10
2022-10-30T14:04:16.598Z,24.00
2022-10-30T14:06:33.691Z,24.00
2022-10-30T14:08:41.060Z,24.00
2022-10-30T14:10:47.416Z,24.00
2022-10-30T14:12:53.778Z,24.10
2022-10-30T14:14:57.911Z,24.10
2022-10-30T14:17:14.518Z,24.10
2022-10-30T14:19:19.891Z,24.10
2022-10-30T14:21:42.323Z,24.00
2022-10-30T14:23:46.524Z,24.00
2022-10-30T14:26:16.222Z,23.90
2022-10-30T14:28:22.182Z,24.00
2022-10-30T14:30:29.459Z,23.90
2022-10-30T14:32:49.172Z,23.90
2022-10-30T14:34:58.996Z,23.80
2022-10-30T14:37:04.449Z,23.80
2022-10-30T14:39:28.810Z,23.70
2022-10-30T14:41:46.022Z,23.70
2022-10-30T14:44:00.509Z,23.60
2022-10-30T14:46:16.564Z,23.60
2022-10-30T14:48:29.529Z,23.60
2022-10-30T14:51:01.676Z,23.50
2022-10-30T14:53:23.276Z,23.50
2022-10-30T14:55:32.300Z,23.50
2022-10-30T14:57:48.581Z,23.50
2022-10-30T15:00:40.106Z,23.50
2022-10-30T15:02:54.550Z,23.50
2022-10-30T15:05:16.108Z,23.50
2022-10-30T15:07:27.513Z,23.40
2022-10-30T15:10:03.206Z,23.40
2022-10-30T15:12:24.269Z,23.10
2022-10-30T15:14:53.057Z,22.90
2022-10-30T15:17:01.156Z,22.60
2022-10-30T15:19:17.156Z,22.40
2022-10-30T15:21:25.825Z,22.20
2022-10-30T15:23:32.620Z,22.00
2022-10-30T15:25:46.098Z,21.80
2022-10-30T15:27:53.264Z,21.60
2022-10-30T15:30:02.495Z,21.40
2022-10-30T15:32:17.452Z,21.30
2022-10-30T15:34:23.710Z,21.20
2022-10-30T15:36:30.739Z,21.00
2022-10-30T15:38:35.335Z,20.90
2022-10-30T15:40:41.353Z,20.80
2022-10-30T15:42:47.687Z,20.70
2022-10-30T15:44:53.034Z,20.60
2022-10-30T15:46:59.333Z,20.50
2022-10-30T15:49:03.820Z,20.40
2022-10-30T15:51:13.529Z,20.50
2022-10-30T15:53:20.885Z,20.40
2022-10-30T15:55:29.738Z,20.40
2022-10-30T16:00:08.582Z,20.30
2022-10-30T16:02:22.625Z,20.20
2022-10-30T16:04:32.706Z,20.10
2022-10-30T16:06:37.059Z,20.00
2022-10-30T16:08:46.311Z,20.00
2022-10-30T16:10:51.334Z,20.00
2022-10-30T16:12:58.936Z,20.00
2022-10-30T16:15:08.705Z,19.80
2022-10-30T16:17:13.589Z,19.70
2022-10-30T16:19:27.931Z,19.60
2022-10-30T16:21:35.299Z,19.60
2022-10-30T16:23:42.093Z,19.60
2022-10-30T16:25:47.569Z,19.60
2022-10-30T16:27:51.893Z,19.50
2022-10-30T16:29:59.841Z,19.40
2022-10-30T16:32:04.719Z,19.40
2022-10-30T16:34:14.629Z,19.30
2022-10-30T16:36:20.704Z,19.20
2022-10-30T16:38:27.929Z,19.10
2022-10-30T16:40:32.821Z,19.00
2022-10-30T16:42:37.220Z,19.10
2022-10-30T16:44:41.571Z,19.10
2022-10-30T16:46:52.307Z,18.90
2022-10-30T16:49:00.211Z,18.80
2022-10-30T16:51:05.979Z,18.80
2022-10-30T16:53:18.818Z,18.80
2022-10-30T16:55:24.417Z,18.70
2022-10-30T16:57:31.317Z,18.70
2022-10-30T16:59:38.836Z,18.60
2022-10-30T17:01:44.813Z,18.60
2022-10-30T17:03:51.149Z,18.60
2022-10-30T17:06:01.464Z,18.60
2022-10-30T17:08:09.374Z,18.70
2022-10-30T17:10:32.934Z,18.60
2022-10-30T17:12:37.237Z,18.70
2022-10-30T17:14:51.282Z,18.60
2022-10-30T17:16:57.346Z,18.60
2022-10-30T17:19:24.096Z,18.40
2022-10-30T17:21:31.067Z,18.40
2022-10-30T17:23:36.544Z,18.40
2022-10-30T17:25:42.143Z,18.30
2022-10-30T17:27:49.496Z,18.40
2022-10-30T17:29:53.762Z,18.30
2022-10-30T17:31:59.984Z,18.30
2022-10-30T17:34:16.309Z,18.30
2022-10-30T17:36:20.667Z,18.20
2022-10-30T17:38:24.918Z,18.10
2022-10-30T17:40:29.405Z,18.10
2022-10-30T17:42:33.878Z,18.10
2022-10-30T17:44:38.720Z,18.00
2022-10-30T17:46:43.007Z,18.00
2022-10-30T17:48:47.544Z,17.90
2022-10-30T17:50:53.647Z,17.80
2022-10-30T17:52:58.215Z,17.70
2022-10-30T17:55:04.023Z,17.70
2022-10-30T17:57:10.905Z,17.60
2022-10-30T17:59:15.279Z,17.60
2022-10-30T18:01:21.870Z,17.50
2022-10-30T18:03:26.468Z,17.50
2022-10-30T18:05:31.633Z,17.50
2022-10-30T18:07:37.478Z,17.50
2022-10-30T18:09:41.971Z,17.40
2022-10-30T18:11:46.306Z,17.40
2022-10-30T18:13:51.321Z,17.30
2022-10-30T18:15:59.149Z,17.20
2022-10-30T18:18:03.820Z,17.20
2022-10-30T18:20:08.976Z,17.10
2022-10-30T18:22:13.187Z,17.10
2022-10-30T18:24:20.151Z,17.10
2022-10-30T18:26:26.066Z,17.00
2022-10-30T18:28:30.553Z,17.00
2022-10-30T18:30:34.891Z,16.90
2022-10-30T18:32:39.101Z,16.90
2022-10-30T18:34:43.253Z,16.90
2022-10-30T18:36:47.494Z,16.90
2022-10-30T18:38:52.778Z,16.80
2022-10-30T18:40:59.656Z,16.80
2022-10-30T18:43:03.990Z,16.80
2022-10-30T18:45:24.298Z,16.70
2022-10-30T18:47:28.515Z,16.60
2022-10-30T18:49:33.649Z,16.50
2022-10-30T18:51:38.680Z,16.50
2022-10-30T18:53:44.970Z,16.50
2022-10-30T18:55:49.383Z,16.50
2022-10-30T18:57:57.635Z,16.30
2022-10-30T19:00:04.250Z,16.30
2022-10-30T19:02:20.992Z,16.20
2022-10-30T19:04:25.329Z,16.20
2022-10-30T19:06:30.112Z,16.30
2022-10-30T19:08:34.488Z,16.30
2022-10-30T19:10:40.342Z,16.30
2022-10-30T19:13:04.283Z,16.30
2022-10-30T19:15:17.791Z,16.30
2022-10-30T19:17:22.249Z,16.30
2022-10-30T19:19:30.058Z,16.30
2022-10-30T19:21:35.452Z,16.30
2022-10-30T19:23:39.873Z,16.10
2022-10-30T19:25:46.136Z,16.00
2022-10-30T19:27:51.365Z,16.00
2022-10-30T19:29:55.918Z,16.00
2022-10-30T19:32:01.951Z,15.90
2022-10-30T19:34:06.282Z,15.90
2022-10-30T19:36:28.549Z,15.90
2022-10-30T19:38:34.276Z,16.00
2022-10-30T19:40:39.674Z,16.00
2022-10-30T19:42:44.196Z,16.10
2022-10-30T19:44:48.429Z,16.10
2022-10-30T19:46:53.267Z,16.10
2022-10-30T19:49:00.372Z,16.20
2022-10-30T19:51:07.281Z,16.30
2022-10-30T19:53:11.967Z,16.30
2022-10-30T19:55:16.705Z,16.30
2022-10-30T19:57:22.253Z,16.40
2022-10-30T19:59:27.337Z,16.40
2022-10-30T20:01:31.744Z,16.40
2022-10-30T20:03:36.594Z,16.50
2022-10-30T20:05:45.597Z,16.40
2022-10-30T20:08:02.602Z,16.40
2022-10-30T20:10:19.902Z,16.40
2022-10-30T20:12:24.221Z,16.30
2022-10-30T20:14:28.527Z,16.40
2022-10-30T20:16:32.888Z,16.30
2022-10-30T20:18:38.375Z,16.30
2022-10-30T20:20:48.987Z,16.30
2022-10-30T20:22:53.454Z,16.30
2022-10-30T20:24:57.725Z,16.40
2022-10-30T20:27:02.440Z,16.40
2022-10-30T20:29:06.821Z,16.40
2022-10-30T20:31:13.886Z,16.30
2022-10-30T20:33:19.405Z,16.30
2022-10-30T20:35:24.367Z,16.30
2022-10-30T20:37:30.165Z,16.20
2022-10-30T20:39:34.368Z,16.10
2022-10-30T20:41:41.657Z,16.00
2022-10-30T20:43:45.891Z,16.00
2022-10-30T20:45:50.309Z,15.90
2022-10-30T20:47:54.722Z,15.90
2022-10-30T20:49:58.931Z,16.00
2022-10-30T20:52:03.247Z,15.80
2022-10-30T20:54:08.949Z,15.80
2022-10-30T20:56:13.936Z,15.70
2022-10-30T20:58:18.490Z,15.80
2022-10-30T21:00:23.928Z,15.70
2022-10-30T21:02:28.355Z,15.60
2022-10-30T21:04:32.927Z,15.60
2022-10-30T21:06:37.342Z,15.60
2022-10-30T21:08:42.170Z,15.60
2022-10-30T21:10:48.463Z,15.60
2022-10-30T21:14:57.274Z,15.60
2022-10-30T21:17:01.900Z,15.60
2022-10-30T21:19:08.386Z,15.60
2022-10-30T21:21:13.632Z,15.50
2022-10-30T21:23:17.906Z,15.60
2022-10-30T21:25:22.389Z,15.50
2022-10-30T21:27:28.091Z,15.50
2022-10-30T21:29:34.318Z,15.50
2022-10-30T21:31:39.491Z,15.50
2022-10-30T21:33:43.775Z,15.50
2022-10-30T21:35:48.058Z,15.50
2022-10-30T21:37:52.435Z,15.50
2022-10-30T21:39:56.710Z,15.40
2022-10-30T21:42:00.950Z,15.40
2022-10-30T21:44:06.671Z,15.40
2022-10-30T21:46:12.965Z,15.50
2022-10-30T21:48:17.872Z,15.40
2022-10-30T21:50:22.377Z,15.50
2022-10-30T21:52:26.780Z,15.50
2022-10-30T21:54:31.057Z,15.50
2022-10-30T21:56:36.186Z,15.50
2022-10-30T21:58:40.684Z,15.40
2022-10-30T22:00:46.466Z,15.40
2022-10-30T22:02:52.195Z,15.40
2022-10-30T22:04:56.726Z,15.40
2022-10-30T22:07:01.029Z,15.30
2022-10-30T22:09:05.417Z,15.30
2022-10-30T22:11:11.917Z,15.30
2022-10-30T22:13:16.490Z,15.30
2022-10-30T22:15:20.856Z,15.30
2022-10-30T22:17:30.667Z,15.20
2022-10-30T22:19:38.646Z,15.20
2022-10-30T22:21:42.816Z,15.20
2022-10-30T22:23:47.117Z,15.30
2022-10-30T22:25:55.997Z,15.30
2022-10-30T22:28:00.705Z,15.30
2022-10-30T22:30:05.579Z,15.40
2022-10-30T22:32:10.220Z,15.30
2022-10-30T22:34:15.883Z,15.30
2022-10-30T22:36:22.575Z,15.30
2022-10-30T22:38:26.832Z,15.30
2022-10-30T22:40:31.137Z,15.30
2022-10-30T22:42:36.882Z,15.40
2022-10-30T22:44:41.179Z,15.30
2022-10-30T22:46:46.200Z,15.40
2022-10-30T22:48:50.971Z,15.30
2022-10-30T22:50:59.597Z,15.30
2022-10-30T22:53:03.919Z,15.30
2022-10-30T22:55:09.090Z,15.30
2022-10-30T22:57:13.324Z,15.30
2022-10-30T22:59:17.626Z,15.40
2022-10-30T23:01:24.637Z,15.50
2022-10-30T23:03:29.403Z,15.50
2022-10-30T23:05:33.789Z,15.50
2022-10-30T23:07:39.564Z,15.50
2022-10-30T23:09:43.824Z,15.30
2022-10-30T23:11:48.081Z,15.30
2022-10-30T23:13:53.243Z,15.30
2022-10-30T23:16:01.728Z,15.20
2022-10-30T23:18:06.831Z,15.20
2022-10-30T23:20:11.656Z,15.20
2022-10-30T23:22:16.050Z,15.20
2022-10-30T23:24:21.821Z,15.10
2022-10-30T23:26:28.654Z,15.10
2022-10-30T23:28:32.946Z,15.20
2022-10-30T23:30:37.652Z,15.30
2022-10-30T23:32:42.268Z,15.30
2022-10-30T23:34:46.688Z,15.30
2022-10-30T23:36:50.840Z,15.30
2022-10-30T23:38:56.038Z,15.40
2022-10-30T23:41:01.884Z,15.40
2022-10-30T23:43:06.074Z,15.30
2022-10-30T23:45:10.878Z,15.30
2022-10-30T23:47:15.141Z,15.30
2022-10-30T23:49:19.610Z,15.30
2022-10-30T23:51:24.171Z,15.30
2022-10-30T23:53:28.367Z,15.30
2022-10-30T23:55:32.877Z,15.50
2022-10-30T23:57:38.712Z,15.50
2022-10-30T23:59:43.130Z,15.50
